Time;durP1;ratioP1;P1;durP2;ratioP2;P2;SDS_P1;SDS_P2;PMS_P1;PMS_P2;Temp;Humidity;BMP_temperature;BMP_pressure;BME280_temperature;BME280_humidity;BME280_pressure;Samples;Min_cycle;Max_cycle;Signal;HPM_P1;HPM_P2
2023/03/02 00:02:19;;;;;;;56.03;27.35;;;;;;;1.72;100.00;102609.25;4879337;29;20035;-83
2023/03/02 00:04:51;;;;;;;61.55;25.83;;;;;;;1.81;100.00;102610.34;4901002;29;20030;-83
2023/03/02 00:07:25;;;;;;;60.88;25.27;;;;;;;1.73;100.00;102610.91;4898207;29;20040;-83
2023/03/02 00:09:51;;;;;;;60.92;27.25;;;;;;;1.71;100.00;102613.09;4896356;29;20465;-83
2023/03/02 00:12:16;;;;;;;64.00;27.98;;;;;;;1.66;100.00;102611.19;4897808;29;20032;-84
2023/03/02 00:14:42;;;;;;;66.80;27.58;;;;;;;1.68;100.00;102622.78;4897714;29;20553;-83
2023/03/02 00:17:09;;;;;;;64.63;27.35;;;;;;;1.76;100.00;102618.66;4893350;29;20477;-84
2023/03/02 00:19:35;;;;;;;55.40;26.30;;;;;;;1.82;100.00;102612.03;4881348;29;20549;-84
2023/03/02 00:22:01;;;;;;;65.38;28.52;;;;;;;1.76;100.00;102610.38;4897720;29;20035;-83
2023/03/02 00:24:26;;;;;;;56.90;26.42;;;;;;;1.77;100.00;102615.63;4897544;29;20496;-83
2023/03/02 00:26:52;;;;;;;64.93;27.20;;;;;;;1.68;100.00;102617.25;4914589;29;20027;-84
2023/03/02 00:29:17;;;;;;;58.22;26.00;;;;;;;1.77;100.00;102604.59;4896107;29;20027;-84
2023/03/02 00:31:42;;;;;;;59.13;26.83;;;;;;;1.74;100.00;102610.63;4896817;29;20130;-84
2023/03/02 00:34:08;;;;;;;62.65;27.90;;;;;;;1.70;100.00;102604.00;4899941;29;20477;-83
2023/03/02 00:36:33;;;;;;;56.08;24.90;;;;;;;1.79;100.00;102607.03;4885593;29;20056;-83
2023/03/02 00:38:58;;;;;;;59.63;24.98;;;;;;;1.82;100.00;102607.31;4896953;29;20028;-83
2023/03/02 00:41:24;;;;;;;59.85;26.52;;;;;;;1.83;100.00;102603.47;4911700;29;20098;-83
2023/03/02 00:43:49;;;;;;;58.22;24.50;;;;;;;1.78;100.00;102595.19;4914181;29;20043;-83
2023/03/02 00:46:21;;;;;;;57.22;25.63;;;;;;;1.69;100.00;102594.09;4897361;29;20024;-84
2023/03/02 00:48:46;;;;;;;55.58;25.33;;;;;;;1.80;100.00;102592.97;4896811;29;20042;-83
2023/03/02 00:51:12;;;;;;;57.65;23.70;;;;;;;1.72;100.00;102593.53;4890894;29;20028;-83
2023/03/02 00:53:39;;;;;;;56.95;25.77;;;;;;;1.72;100.00;102596.28;4900057;29;20035;-83
2023/03/02 00:56:05;;;;;;;55.25;26.05;;;;;;;1.71;100.00;102594.63;4897505;29;20035;-83
2023/03/02 00:58:31;;;;;;;53.63;25.00;;;;;;;1.68;100.00;102606.22;4894217;29;20433;-84
2023/03/02 01:00:57;;;;;;;56.15;25.65;;;;;;;1.68;100.00;102597.94;4894086;29;20107;-84
2023/03/02 01:03:23;;;;;;;60.35;25.02;;;;;;;1.65;100.00;102598.50;4884840;29;20028;-84
2023/03/02 01:05:49;;;;;;;54.88;24.08;;;;;;;1.61;100.00;102594.63;4880370;29;20035;-84
2023/03/02 01:08:14;;;;;;;54.92;25.52;;;;;;;1.57;100.00;102591.59;4903730;29;20029;-83
2023/03/02 01:10:40;;;;;;;45.72;21.67;;;;;;;1.68;100.00;102578.59;4897165;29;20064;-84
2023/03/02 01:13:06;;;;;;;55.80;25.73;;;;;;;1.74;100.00;102584.97;4895601;29;20032;-84
2023/03/02 01:15:32;;;;;;;52.03;24.77;;;;;;;1.78;100.00;102586.91;4917816;29;20143;-84
2023/03/02 01:17:59;;;;;;;59.83;26.10;;;;;;;1.72;100.00;102589.94;4891445;29;20102;-83
2023/03/02 01:20:24;;;;;;;51.35;23.55;;;;;;;1.67;100.00;102582.50;4911382;29;20016;-83
2023/03/02 01:22:50;;;;;;;50.10;22.98;;;;;;;1.72;100.00;102579.72;4896800;29;20044;-84
2023/03/02 01:25:15;;;;;;;49.20;23.42;;;;;;;1.76;100.00;102569.78;4892137;29;20108;-83
2023/03/02 01:27:41;;;;;;;54.17;23.52;;;;;;;1.74;100.00;102577.50;4895064;29;20016;-84
2023/03/02 01:30:07;;;;;;;55.95;23.80;;;;;;;1.74;100.00;102577.50;4894286;29;20087;-84
2023/03/02 01:32:32;;;;;;;51.55;23.58;;;;;;;1.61;100.00;102573.38;4910779;29;20469;-84
2023/03/02 01:34:58;;;;;;;55.08;24.48;;;;;;;1.68;100.00;102567.56;4896534;29;20111;-84
2023/03/02 01:37:23;;;;;;;49.53;22.40;;;;;;;1.73;100.00;102564.81;4894077;29;20748;-84
2023/03/02 01:39:49;;;;;;;57.83;24.92;;;;;;;1.69;100.00;102560.13;4907245;29;20040;-84
2023/03/02 01:42:15;;;;;;;46.70;22.60;;;;;;;1.79;100.00;102562.88;4896442;29;20123;-83
2023/03/02 01:44:44;;;;;;;44.78;21.48;;;;;;;1.60;100.00;102559.84;4901502;29;20042;-84
2023/03/02 01:47:15;;;;;;;43.55;20.38;;;;;;;1.76;100.00;102564.25;4898160;29;20023;-84
2023/03/02 01:49:45;;;;;;;48.15;22.92;;;;;;;1.76;100.00;102563.44;4879712;29;20067;-84
2023/03/02 01:52:11;;;;;;;43.10;21.73;;;;;;;1.68;100.00;102552.94;4892045;29;20539;-84
2023/03/02 01:54:39;;;;;;;48.60;21.92;;;;;;;1.79;100.00;102547.16;4915814;29;20116;-84
2023/03/02 01:57:06;;;;;;;50.00;23.30;;;;;;;1.67;100.00;102551.31;4916650;29;20131;-84
2023/03/02 01:59:34;;;;;;;40.55;19.58;;;;;;;1.59;100.00;102549.91;4899031;29;20035;-84
2023/03/02 02:02:03;;;;;;;46.88;22.23;;;;;;;1.53;100.00;102545.50;4896969;29;20052;-83
2023/03/02 02:04:30;;;;;;;46.65;21.42;;;;;;;1.66;100.00;102533.88;4903901;29;20020;-84
2023/03/02 02:07:01;;;;;;;47.30;22.55;;;;;;;1.63;100.00;102539.97;4889111;29;20055;-84
2023/03/02 02:09:29;;;;;;;49.88;22.42;;;;;;;1.62;100.00;102552.09;4882132;29;20044;-84
2023/03/02 02:11:54;;;;;;;41.75;20.60;;;;;;;1.56;100.00;102531.13;4896541;29;20493;-84
2023/03/02 02:14:20;;;;;;;45.20;21.50;;;;;;;1.51;100.00;102544.94;4898178;29;20035;-84
2023/03/02 02:16:46;;;;;;;50.67;22.40;;;;;;;1.35;100.00;102539.41;4899203;29;20066;-84
2023/03/02 02:19:38;;;;;;;52.95;24.48;;;;;;;1.29;100.00;102536.94;4899375;29;20088;-84
2023/03/02 02:22:10;;;;;;;47.25;21.48;;;;;;;1.33;100.00;102538.88;4873262;29;20036;-84
2023/03/02 02:24:46;;;;;;;48.35;22.25;;;;;;;1.37;100.00;102539.97;4899245;29;20028;-84
2023/03/02 02:27:13;;;;;;;48.30;22.55;;;;;;;1.35;100.00;102535.81;4899271;29;20036;-84
2023/03/02 02:29:44;;;;;;;52.58;23.52;;;;;;;1.39;100.00;102526.72;4901408;29;20044;-84
2023/03/02 02:32:16;;;;;;;56.28;24.58;;;;;;;1.14;100.00;102513.75;4897307;29;20039;-84
2023/03/02 02:34:47;;;;;;;45.28;21.95;;;;;;;1.27;100.00;102520.66;4899824;29;20036;-84
2023/03/02 02:37:22;;;;;;;44.85;20.92;;;;;;;1.29;100.00;102514.88;4890522;29;20139;-83
2023/03/02 02:39:49;;;;;;;48.85;23.92;;;;;;;1.25;100.00;102514.56;4910204;29;20051;-84
2023/03/02 02:42:47;;;;;;;50.13;22.83;;;;;;;1.36;100.00;102520.94;4898393;29;20040;-84
2023/03/02 02:45:22;;;;;;;54.63;22.90;;;;;;;1.20;100.00;102507.13;4906952;29;20499;-84
2023/03/02 02:47:49;;;;;;;51.05;22.50;;;;;;;1.20;100.00;102509.03;4899820;29;20055;-84
2023/03/02 02:50:28;;;;;;;49.60;22.25;;;;;;;1.04;100.00;102507.38;4898470;29;20036;-84
2023/03/02 02:53:05;;;;;;;48.53;23.05;;;;;;;1.32;100.00;102514.31;4907338;29;20035;-83
2023/03/02 02:55:32;;;;;;;51.13;22.92;;;;;;;1.29;100.00;102512.09;4894640;29;20375;-84
2023/03/02 02:58:01;;;;;;;56.40;25.23;;;;;;;1.36;100.00;102515.41;4895042;29;20424;-83
2023/03/02 03:00:26;;;;;;;54.58;24.33;;;;;;;1.19;100.00;102515.69;4903624;29;20128;-83
2023/03/02 03:03:05;;;;;;;62.60;27.83;;;;;;;1.12;100.00;102512.38;4900536;29;20245;-84
2023/03/02 03:05:34;;;;;;;57.55;25.52;;;;;;;1.01;100.00;102509.59;4880310;29;20135;-84
2023/03/02 03:08:58;;;;;;;63.03;26.65;;;;;;;1.11;100.00;102513.44;4891700;29;20031;-84
2023/03/02 03:11:30;;;;;;;55.50;23.00;;;;;;;1.10;100.00;102506.28;4844616;29;20432;-83
2023/03/02 03:14:08;;;;;;;51.47;25.60;;;;;;;1.15;100.00;102503.53;4899976;29;20397;-83
2023/03/02 03:16:35;;;;;;;57.38;25.25;;;;;;;0.97;100.00;102505.72;4896331;29;20088;-83
2023/03/02 03:19:14;;;;;;;67.68;27.65;;;;;;;1.03;100.00;102495.50;4898345;29;20039;-83
2023/03/02 03:21:39;;;;;;;60.72;25.88;;;;;;;0.90;100.00;102507.88;4880073;29;20052;-83
2023/03/02 03:24:05;;;;;;;57.97;25.35;;;;;;;0.99;100.00;102506.28;4910634;29;20053;-83
2023/03/02 03:26:31;;;;;;;55.75;24.85;;;;;;;0.97;100.00;102510.38;4910083;29;20514;-83
2023/03/02 03:28:56;;;;;;;55.58;25.85;;;;;;;0.94;100.00;102513.69;4915792;29;20043;-83
2023/03/02 03:31:24;;;;;;;58.75;26.08;;;;;;;1.20;100.00;102517.31;4916711;29;20024;-83
2023/03/02 03:33:49;;;;;;;56.53;25.60;;;;;;;1.21;100.00;102507.94;4887138;29;20262;-83
2023/03/02 03:36:14;;;;;;;61.42;26.63;;;;;;;1.09;100.00;102504.63;4879784;29;20486;-83
2023/03/02 03:38:40;;;;;;;64.80;25.10;;;;;;;1.06;100.00;102511.53;4888281;29;20109;-83
2023/03/02 03:41:05;;;;;;;60.15;24.63;;;;;;;1.06;100.00;102514.28;4915198;29;20048;-83
2023/03/02 03:43:31;;;;;;;55.03;24.65;;;;;;;1.22;100.00;102520.63;4897606;29;20128;-84
2023/03/02 03:45:56;;;;;;;60.10;25.85;;;;;;;1.09;100.00;102515.66;4893852;29;20047;-83
2023/03/02 03:48:22;;;;;;;57.42;24.58;;;;;;;1.28;100.00;102530.56;4897642;29;20028;-84
2023/03/02 03:50:47;;;;;;;50.13;22.75;;;;;;;1.01;100.00;102525.28;4896268;29;20024;-83
2023/03/02 03:53:15;;;;;;;65.65;27.55;;;;;;;1.15;100.00;102520.06;4895989;29;20036;-83
2023/03/02 03:55:41;;;;;;;55.40;24.13;;;;;;;1.17;100.00;102526.97;4904810;29;20421;-83
2023/03/02 03:58:06;;;;;;;57.53;25.35;;;;;;;1.18;100.00;102525.03;4908241;29;20032;-83
2023/03/02 04:00:32;;;;;;;51.38;24.10;;;;;;;1.27;100.00;102517.91;4896968;29;20028;-83
2023/03/02 04:02:57;;;;;;;56.00;25.67;;;;;;;1.16;100.00;102518.97;4889341;29;20029;-83
2023/03/02 04:05:23;;;;;;;53.47;21.90;;;;;;;1.37;100.00;102517.91;4895921;29;20106;-83
2023/03/02 04:07:48;;;;;;;55.53;23.17;;;;;;;1.51;100.00;102529.19;4911822;29;20024;-83
2023/03/02 04:10:14;;;;;;;50.45;25.58;;;;;;;1.52;100.00;102518.97;4905113;29;20034;-83
2023/03/02 04:12:41;;;;;;;55.10;24.45;;;;;;;1.39;100.00;102526.72;4879925;29;20032;-84
2023/03/02 04:15:09;;;;;;;51.22;25.67;;;;;;;1.36;100.00;102521.75;4893626;29;20036;-83
2023/03/02 04:17:34;;;;;;;54.50;22.27;;;;;;;1.41;100.00;102527.28;4895217;29;20495;-83
2023/03/02 04:20:04;;;;;;;55.00;23.48;;;;;;;1.15;100.00;102525.59;4897248;29;20024;-83
2023/03/02 04:22:29;;;;;;;52.53;23.23;;;;;;;1.25;100.00;102520.09;4892992;29;20024;-83
2023/03/02 04:24:55;;;;;;;46.30;22.77;;;;;;;1.27;100.00;102531.69;4893701;29;20392;-83
2023/03/02 04:27:20;;;;;;;50.17;22.13;;;;;;;1.20;100.00;102522.84;4900533;29;20032;-84
2023/03/02 04:29:48;;;;;;;47.28;22.00;;;;;;;1.30;100.00;102531.13;4894974;29;20048;-83
2023/03/02 04:32:14;;;;;;;55.10;23.55;;;;;;;1.04;100.00;102526.69;4891500;29;20064;-83
2023/03/02 04:34:39;;;;;;;49.75;23.33;;;;;;;1.02;100.00;102527.78;4894598;29;20055;-83
2023/03/02 04:37:05;;;;;;;43.95;21.23;;;;;;;0.97;100.00;102533.28;4906272;29;20035;-83
2023/03/02 04:39:30;;;;;;;52.22;22.67;;;;;;;1.04;100.00;102540.47;4920207;29;20042;-84
2023/03/02 04:41:56;;;;;;;52.30;23.17;;;;;;;1.04;100.00;102537.72;4897154;29;20024;-83
2023/03/02 04:44:21;;;;;;;46.85;22.10;;;;;;;1.10;100.00;102533.88;4893324;29;20153;-83
2023/03/02 04:46:48;;;;;;;47.42;22.80;;;;;;;1.16;100.00;102525.34;4895327;29;20036;-83
2023/03/02 04:49:15;;;;;;;43.72;21.25;;;;;;;1.24;100.00;102528.63;4893319;29;20123;-83
2023/03/02 04:51:52;;;;;;;38.25;19.10;;;;;;;1.11;100.00;102528.06;4902498;29;20119;-83
2023/03/02 04:54:42;;;;;;;48.67;21.95;;;;;;;1.27;100.00;102528.94;4890011;29;20040;-83
2023/03/02 04:57:08;;;;;;;45.70;20.65;;;;;;;0.97;100.00;102525.03;4893632;29;20037;-84
2023/03/02 05:00:34;;;;;;;50.60;22.08;;;;;;;-148.20;100.00;73351.34;4905755;29;20036;-83
2023/03/02 05:03:58;;;;;;;54.00;20.98;;;;;;;-148.20;100.00;73351.34;4891306;29;20493;-84
2023/03/02 05:07:22;;;;;;;44.40;20.77;;;;;;;-148.20;100.00;73351.34;4912082;29;20119;-84
2023/03/02 05:10:46;;;;;;;;;;;;;;;-148.20;100.00;73351.34;4900050;29;20445;-84
2023/03/02 05:14:11;;;;;;;44.53;19.35;;;;;;;-148.20;100.00;73351.34;4896413;29;19918;-84
2023/03/02 05:17:03;;;;;;;43.35;19.42;;;;;;;0.97;100.00;102525.03;4914597;29;20560;-84
2023/03/02 05:19:35;;;;;;;47.40;20.25;;;;;;;0.97;100.00;102525.03;4897077;29;20361;-84
2023/03/02 05:23:01;;;;;;;52.75;20.40;;;;;;;-148.20;100.00;73351.34;4903619;29;20039;-83
2023/03/02 05:25:28;;;;;;;41.90;19.45;;;;;;;1.26;100.00;102535.53;4899396;29;20476;-84
2023/03/02 05:27:53;;;;;;;44.13;21.25;;;;;;;1.03;100.00;102534.13;4916599;29;20024;-83
2023/03/02 05:30:20;;;;;;;39.33;19.75;;;;;;;1.02;100.00;102527.78;4924443;29;20127;-84
2023/03/02 05:32:47;;;;;;;48.20;23.17;;;;;;;1.16;100.00;102530.84;4901133;29;20131;-83
2023/03/02 05:35:12;;;;;;;42.08;20.90;;;;;;;1.27;100.00;102533.63;4902808;29;20123;-84
2023/03/02 05:37:43;;;;;;;49.40;20.02;;;;;;;1.28;100.00;102535.25;4900666;29;20213;-84
2023/03/02 05:40:13;;;;;;;49.72;20.80;;;;;;;1.37;100.00;102526.19;4899954;29;20084;-84
2023/03/02 05:42:40;;;;;;;46.92;19.98;;;;;;;1.37;100.00;73351.34;4909912;29;20032;-84
2023/03/02 05:45:07;;;;;;;54.25;22.13;;;;;;;1.23;100.00;102536.09;4914193;29;20063;-84
2023/03/02 05:47:32;;;;;;;46.63;19.50;;;;;;;1.22;100.00;102526.16;4902682;29;20063;-84
2023/03/02 05:50:11;;;;;;;55.08;22.77;;;;;;;1.22;100.00;102526.16;4881780;29;20024;-83
2023/03/02 05:52:36;;;;;;;47.72;22.10;;;;;;;1.22;100.00;102528.91;4906490;29;20107;-84
2023/03/02 05:55:02;;;;;;;48.85;20.70;;;;;;;1.22;100.00;102528.91;4900441;29;20044;-83
2023/03/02 05:57:27;;;;;;;46.05;20.38;;;;;;;1.38;100.00;102533.34;4897305;29;20029;-84
2023/03/02 05:59:53;;;;;;;45.58;20.75;;;;;;;1.24;100.00;102529.47;4899804;29;20036;-84
2023/03/02 06:02:21;;;;;;;46.40;20.55;;;;;;;1.24;100.00;102529.47;4900183;29;20099;-84
2023/03/02 06:04:46;;;;;;;48.17;21.08;;;;;;;1.14;100.00;102541.31;4913810;29;20032;-84
2023/03/02 06:07:12;;;;;;;50.35;20.95;;;;;;;1.28;100.00;102538.03;4898632;29;20039;-83
2023/03/02 06:09:38;;;;;;;50.80;21.30;;;;;;;1.04;100.00;102534.97;4889896;29;20024;-84
2023/03/02 06:12:05;;;;;;;40.50;19.00;;;;;;;1.15;100.00;102531.13;4889944;29;20079;-84
2023/03/02 06:14:31;;;;;;;50.15;20.77;;;;;;;1.31;100.00;102535.56;4899150;29;20091;-84
2023/03/02 06:16:56;;;;;;;47.88;19.70;;;;;;;1.30;100.00;102539.41;4896895;29;20483;-84
2023/03/02 06:19:21;;;;;;;45.70;23.25;;;;;;;1.37;100.00;102548.25;4915333;29;20038;-83
2023/03/02 06:21:47;;;;;;;50.20;20.98;;;;;;;1.36;100.00;102543.00;4896778;29;20024;-84
2023/03/02 06:24:12;;;;;;;46.75;20.40;;;;;;;1.38;100.00;102547.13;4896633;29;20028;-84
2023/03/02 06:26:38;;;;;;;54.47;22.80;;;;;;;1.27;100.00;102553.75;4890736;29;20033;-84
2023/03/02 06:29:04;;;;;;;50.65;21.88;;;;;;;1.46;100.00;102553.22;4895644;29;20024;-84
2023/03/02 06:31:30;;;;;;;51.67;21.63;;;;;;;1.56;100.00;102556.81;4906728;29;20019;-84
2023/03/02 06:33:56;;;;;;;54.47;23.45;;;;;;;1.44;100.00;102560.94;4917634;29;20035;-84
2023/03/02 06:36:22;;;;;;;49.55;23.10;;;;;;;1.40;100.00;102550.44;4934143;29;20178;-84
2023/03/02 06:38:47;;;;;;;54.25;23.65;;;;;;;1.21;100.00;102552.09;4915575;29;20166;-84
2023/03/02 06:41:12;;;;;;;52.22;23.40;;;;;;;1.16;100.00;102565.84;4899124;29;20047;-84
2023/03/02 06:43:38;;;;;;;52.13;22.50;;;;;;;1.07;100.00;102554.53;4895739;29;20040;-84
2023/03/02 06:46:03;;;;;;;44.10;18.15;;;;;;;1.15;100.00;102553.19;4900279;29;20540;-84
2023/03/02 06:48:29;;;;;;;48.03;21.02;;;;;;;1.04;100.00;102555.09;4908741;29;20039;-84
2023/03/02 06:50:54;;;;;;;48.55;20.65;;;;;;;0.98;100.00;102559.75;4915187;29;20031;-83
2023/03/02 06:53:22;;;;;;;48.30;20.48;;;;;;;1.02;100.00;102557.28;4902930;29;20039;-83
2023/03/02 06:55:47;;;;;;;44.15;20.15;;;;;;;1.01;100.00;102559.22;4892248;29;20371;-83
2023/03/02 06:58:13;;;;;;;49.60;23.85;;;;;;;1.12;100.00;102559.25;4914887;29;20038;-84
2023/03/02 07:00:39;;;;;;;45.92;19.50;;;;;;;1.11;100.00;102561.16;4900159;29;20028;-83
2023/03/02 07:03:04;;;;;;;51.30;22.17;;;;;;;1.20;100.00;102551.25;4905892;29;20039;-84
2023/03/02 07:05:31;;;;;;;42.88;19.73;;;;;;;1.32;100.00;102558.44;4880127;29;20044;-83
2023/03/02 07:07:57;;;;;;;43.20;19.00;;;;;;;1.29;100.00;102564.53;4895964;29;20085;-84
2023/03/02 07:10:23;;;;;;;48.28;19.63;;;;;;;1.45;100.00;102568.13;4907450;29;20039;-84
2023/03/02 07:12:48;;;;;;;42.88;20.15;;;;;;;1.62;100.00;102563.16;4914990;29;20027;-83
2023/03/02 07:15:14;;;;;;;54.13;22.35;;;;;;;1.25;100.00;102564.22;4899220;29;20364;-83
2023/03/02 07:17:41;;;;;;;52.92;21.38;;;;;;;1.38;100.00;102563.69;4895345;29;20024;-84
2023/03/02 07:20:10;;;;;;;50.95;21.35;;;;;;;1.18;100.00;102560.91;4888135;29;20397;-83
2023/03/02 07:22:35;;;;;;;49.63;23.13;;;;;;;1.39;100.00;102554.31;4896829;29;20031;-83
2023/03/02 07:25:00;;;;;;;57.67;23.73;;;;;;;1.24;100.00;102562.56;4914671;29;20032;-84
2023/03/02 07:27:26;;;;;;;54.60;22.85;;;;;;;1.17;100.00;102559.25;4914098;29;20449;-83
2023/03/02 07:29:51;;;;;;;57.38;24.02;;;;;;;1.35;100.00;102561.50;4893356;29;20139;-83
2023/03/02 07:32:17;;;;;;;56.10;21.08;;;;;;;1.35;100.00;102564.25;4907023;29;20062;-84
2023/03/02 07:34:42;;;;;;;61.40;24.45;;;;;;;1.28;100.00;102568.38;4932942;29;20019;-84
2023/03/02 07:37:07;;;;;;;52.90;22.23;;;;;;;1.42;100.00;102573.06;4912313;29;20092;-84
2023/03/02 07:39:33;;;;;;;54.33;22.20;;;;;;;1.33;100.00;102562.84;4899521;29;20433;-83
2023/03/02 07:41:59;;;;;;;52.65;20.98;;;;;;;1.29;100.00;102573.63;4904186;29;20032;-84
2023/03/02 07:44:26;;;;;;;54.03;23.38;;;;;;;1.05;100.00;102561.44;4914876;29;20111;-84
2023/03/02 07:46:51;;;;;;;50.75;21.33;;;;;;;1.27;100.00;102575.00;4913835;29;20036;-84
2023/03/02 07:49:16;;;;;;;59.60;24.83;;;;;;;1.39;100.00;102570.88;4897732;29;20039;-83
2023/03/02 07:51:42;;;;;;;54.13;24.15;;;;;;;1.41;100.00;102568.69;4884660;29;20043;-83
2023/03/02 07:54:07;;;;;;;59.65;24.42;;;;;;;1.40;100.00;102567.00;4896079;29;20036;-83
2023/03/02 07:56:33;;;;;;;56.60;24.48;;;;;;;1.29;100.00;102573.63;4897222;29;20080;-83
2023/03/02 07:58:58;;;;;;;57.78;23.63;;;;;;;1.32;100.00;102575.81;4897828;29;20083;-84
2023/03/02 08:01:24;;;;;;;52.10;21.02;;;;;;;1.53;100.00;102576.66;4897781;29;20016;-83
2023/03/02 08:03:49;;;;;;;53.65;22.25;;;;;;;1.57;100.00;102576.97;4895075;29;20067;-84
2023/03/02 08:06:14;;;;;;;53.20;22.70;;;;;;;1.53;100.00;102578.59;4878800;29;20032;-83
2023/03/02 08:08:40;;;;;;;58.60;21.65;;;;;;;1.68;100.00;102575.84;4897590;29;20039;-84
2023/03/02 08:11:17;;;;;;;60.28;23.85;;;;;;;1.62;100.00;102579.72;4896409;29;20520;-84
2023/03/02 08:13:43;;;;;;;66.25;26.38;;;;;;;1.42;100.00;102569.50;4899408;29;20055;-83
2023/03/02 08:16:11;;;;;;;64.93;26.15;;;;;;;1.52;100.00;102576.94;4914597;29;20035;-83
2023/03/02 08:18:37;;;;;;;61.65;26.52;;;;;;;1.70;100.00;102565.34;4895585;29;20111;-83
2023/03/02 08:21:03;;;;;;;61.30;26.38;;;;;;;1.73;100.00;102567.59;4899590;29;20127;-83
2023/03/02 08:23:29;;;;;;;58.20;25.52;;;;;;;1.74;100.00;102566.47;4897968;29;20382;-83
2023/03/02 08:25:54;;;;;;;68.30;24.23;;;;;;;1.69;100.00;102565.66;4896846;29;20059;-83
2023/03/02 08:28:21;;;;;;;59.50;24.60;;;;;;;1.72;100.00;102571.44;4900708;29;20095;-84
2023/03/02 08:30:58;;;;;;;64.60;26.00;;;;;;;1.50;100.00;102557.91;4915837;29;20373;-83
2023/03/02 08:33:25;;;;;;;66.30;26.30;;;;;;;1.73;100.00;102567.59;4919224;29;20106;-83
2023/03/02 08:36:09;;;;;;;57.80;26.50;;;;;;;1.85;100.00;102566.47;4899409;29;20020;-83
2023/03/02 08:38:35;;;;;;;52.38;23.23;;;;;;;1.90;100.00;102569.22;4907535;29;20028;-83
2023/03/02 08:41:06;;;;;;;56.17;25.42;;;;;;;1.76;100.00;102564.25;4876564;29;20117;-84
2023/03/02 08:43:31;;;;;;;62.80;24.20;;;;;;;1.74;100.00;102571.97;4885785;29;20028;-84
2023/03/02 08:45:57;;;;;;;63.42;23.80;;;;;;;1.51;100.00;102564.25;4880377;29;20362;-84
2023/03/02 08:48:23;;;;;;;66.13;24.25;;;;;;;1.66;100.00;102561.50;4878735;29;20100;-83
2023/03/02 08:51:08;;;;;;;65.80;25.70;;;;;;;1.59;100.00;102572.00;4878275;29;20119;-84
2023/03/02 08:53:37;;;;;;;64.18;22.67;;;;;;;1.67;100.00;102565.94;4909463;29;20040;-83
2023/03/02 08:56:03;;;;;;;58.63;25.80;;;;;;;1.83;100.00;102570.34;4897049;29;20032;-83
2023/03/02 08:58:29;;;;;;;61.10;27.17;;;;;;;1.89;100.00;102570.31;4889978;29;20393;-84
2023/03/02 09:00:54;;;;;;;70.40;27.85;;;;;;;1.88;100.00;102571.41;4894850;29;20035;-83
2023/03/02 09:03:20;;;;;;;61.03;24.38;;;;;;;1.85;100.00;102566.47;4877949;29;20070;-84
2023/03/02 09:05:46;;;;;;;75.63;27.95;;;;;;;1.87;100.00;102561.50;4895255;29;20049;-84
2023/03/02 09:08:12;;;;;;;74.70;29.58;;;;;;;1.97;100.00;102558.72;4878358;29;20033;-84
2023/03/02 09:10:37;;;;;;;67.60;25.85;;;;;;;1.73;100.00;102563.97;4878410;29;20549;-85
2023/03/02 09:13:03;;;;;;;65.88;25.38;;;;;;;1.78;100.00;102561.22;4866261;29;20048;-85
2023/03/02 09:15:28;;;;;;;57.17;24.48;;;;;;;1.78;100.00;102567.56;4891718;29;20417;-84
2023/03/02 09:17:54;;;;;;;52.75;21.02;;;;;;;1.77;100.00;102568.69;4883110;29;20059;-84
2023/03/02 09:20:20;;;;;;;60.30;26.98;;;;;;;1.80;100.00;102559.84;4875484;29;20048;-84
2023/03/02 09:22:49;;;;;;;55.88;24.25;;;;;;;1.83;100.00;102547.41;4860054;29;20064;-84
2023/03/02 09:25:18;;;;;;;50.78;21.25;;;;;;;1.88;100.00;102552.09;4894141;29;20083;-84
2023/03/02 09:27:45;;;;;;;50.38;21.67;;;;;;;1.80;100.00;102547.97;4896172;29;20031;-84
2023/03/02 09:30:11;;;;;;;55.78;22.30;;;;;;;1.74;100.00;102552.66;4892432;29;20043;-84
2023/03/02 09:32:37;;;;;;;48.33;20.25;;;;;;;1.92;100.00;102555.94;4875420;29;20124;-83
2023/03/02 09:35:02;;;;;;;49.40;21.40;;;;;;;1.80;100.00;102551.56;4877894;29;20157;-83
2023/03/02 09:37:28;;;;;;;50.13;21.20;;;;;;;1.85;100.00;102545.19;4877726;29;20043;-83
2023/03/02 09:39:53;;;;;;;52.92;24.27;;;;;;;2.01;100.00;102543.25;4886660;29;20126;-84
2023/03/02 09:42:43;;;;;;;48.10;21.77;;;;;;;2.13;100.00;102549.31;4923135;29;20030;-83
2023/03/02 09:45:23;;;;;;;47.88;22.55;;;;;;;2.08;100.00;102554.81;4912246;29;20374;-84
2023/03/02 09:48:11;;;;;;;49.08;20.80;;;;;;;2.09;100.00;102550.13;4910813;29;20098;-84
2023/03/02 09:50:45;;;;;;;49.67;21.55;;;;;;;2.02;100.00;102556.78;4897046;29;20499;-83
2023/03/02 09:53:22;;;;;;;51.00;22.40;;;;;;;2.03;100.00;102552.09;4897185;29;20036;-83
2023/03/02 09:55:57;;;;;;;53.55;22.23;;;;;;;2.08;100.00;102554.00;4912435;29;20464;-83
2023/03/02 09:58:27;;;;;;;43.70;21.08;;;;;;;2.21;100.00;102559.78;4894317;29;20433;-84
2023/03/02 10:00:52;;;;;;;43.30;19.67;;;;;;;2.17;100.00;102547.66;4896520;29;20024;-83
2023/03/02 10:03:25;;;;;;;42.95;20.33;;;;;;;2.32;100.00;102548.69;4893284;29;20055;-84
2023/03/02 10:05:53;;;;;;;49.15;21.27;;;;;;;2.27;100.00;102557.00;4893567;29;20493;-84
2023/03/02 10:08:27;;;;;;;46.92;20.67;;;;;;;2.22;100.00;102547.63;4896486;29;20032;-84
2023/03/02 10:11:04;;;;;;;50.72;20.65;;;;;;;2.41;100.00;102544.25;4900180;29;20261;-84
2023/03/02 10:13:46;;;;;;;44.38;21.10;;;;;;;2.49;100.00;102557.50;4918427;29;20039;-84
2023/03/02 10:16:24;;;;;;;44.72;19.35;;;;;;;2.49;100.00;102554.72;4923457;29;20054;-84
2023/03/02 10:19:23;;;;;;;43.05;17.63;;;;;;;2.56;100.00;102560.78;4896439;29;20104;-83
2023/03/02 10:21:57;;;;;;;44.03;20.17;;;;;;;2.60;100.00;102561.03;4900541;29;20036;-84
2023/03/02 10:24:32;;;;;;;46.20;20.02;;;;;;;2.53;100.00;102561.34;4899408;29;20145;-83
2023/03/02 10:27:16;;;;;;;47.13;20.50;;;;;;;2.65;100.00;102563.78;4900157;29;20032;-84
2023/03/02 10:30:13;;;;;;;44.30;21.00;;;;;;;2.68;100.00;102567.91;4895031;29;20030;-83
2023/03/02 10:32:46;;;;;;;43.08;19.95;;;;;;;2.73;100.00;102559.59;4898962;29;20043;-84
2023/03/02 10:35:21;;;;;;;43.22;19.50;;;;;;;2.82;100.00;102566.19;4895265;29;20509;-83
2023/03/02 10:37:50;;;;;;;44.90;20.00;;;;;;;2.92;100.00;102557.03;4900081;29;20035;-84
2023/03/02 10:40:27;;;;;;;44.33;21.23;;;;;;;3.26;100.00;102565.38;4899485;29;20500;-83
2023/03/02 10:42:54;;;;;;;42.40;20.98;;;;;;;3.36;100.00;102559.78;4910592;29;20037;-84
2023/03/02 10:45:30;;;;;;;46.17;21.98;;;;;;;3.39;100.00;102564.75;4907984;29;20051;-84
2023/03/02 10:48:04;;;;;;;48.22;20.85;;;;;;;3.37;100.00;102555.94;4895870;29;20032;-83
2023/03/02 10:50:30;;;;;;;40.50;19.25;;;;;;;3.32;100.00;102561.47;4896374;29;20560;-84
2023/03/02 10:52:55;;;;;;;40.42;19.77;;;;;;;3.26;100.00;102557.91;4914584;29;20043;-84
2023/03/02 10:55:21;;;;;;;34.60;17.30;;;;;;;3.16;100.00;102565.44;4902319;29;20038;-83
2023/03/02 10:57:59;;;;;;;40.72;19.15;;;;;;;3.31;100.00;102559.84;4899353;29;20024;-84
2023/03/02 11:00:27;;;;;;;37.15;17.40;;;;;;;3.41;100.00;102550.63;4897972;29;20483;-84
2023/03/02 11:02:59;;;;;;;36.53;19.85;;;;;;;3.71;100.00;102557.03;4904166;29;20477;-84
2023/03/02 11:05:36;;;;;;;44.20;22.95;;;;;;;4.15;100.00;102556.88;4916315;29;20946;-84
2023/03/02 11:08:23;;;;;;;40.45;18.25;;;;;;;4.14;100.00;102555.25;4895410;29;20020;-84
2023/03/02 11:10:56;;;;;;;42.15;19.60;;;;;;;4.17;100.00;102553.81;4885434;29;20036;-84
2023/03/02 11:13:31;;;;;;;38.65;18.50;;;;;;;3.80;100.00;102547.00;4917075;29;20515;-84
2023/03/02 11:15:59;;;;;;;37.63;20.10;;;;;;;4.04;100.00;102549.78;4884976;29;20032;-84
2023/03/02 11:18:33;;;;;;;35.83;18.05;;;;;;;4.20;100.00;102559.63;4915663;29;20056;-83
2023/03/02 11:21:11;;;;;;;37.72;17.92;;;;;;;4.20;100.00;102544.94;4916005;29;20068;-84
2023/03/02 11:23:55;;;;;;;35.42;17.08;;;;;;;4.30;100.00;102543.97;4898306;29;20032;-84